createdAt,value
2022-08-26T19:36:18.176Z,19.13
2022-08-26T19:38:45.481Z,15.27
2022-08-26T19:41:17.541Z,13.32
2022-08-26T19:43:43.902Z,15.50
2022-08-26T19:46:15.348Z,20.38
2022-08-26T19:48:44.034Z,21.92
2022-08-26T19:51:24.444Z,21.25
2022-08-26T19:53:52.409Z,19.65
2022-08-26T19:56:18.851Z,16.35
2022-08-26T19:58:45.340Z,15.65
2022-08-26T20:01:13.250Z,18.65
2022-08-26T20:03:40.736Z,16.30
2022-08-26T20:06:09.417Z,15.50
2022-08-26T20:08:36.747Z,15.60
2022-08-26T20:11:05.391Z,14.40
2022-08-26T20:13:32.651Z,16.15
2022-08-26T20:15:59.198Z,15.38
2022-08-26T20:18:44.044Z,15.63
2022-08-26T20:21:29.234Z,15.57
2022-08-26T20:24:05.998Z,16.58
2022-08-26T20:26:34.794Z,15.30
2022-08-26T20:29:01.399Z,15.25
2022-08-26T20:31:28.199Z,15.18
2022-08-26T20:33:55.243Z,15.73
2022-08-26T20:36:23.314Z,15.52
2022-08-26T20:38:50.045Z,15.38
2022-08-26T20:41:17.017Z,16.00
2022-08-26T20:43:43.635Z,16.45
2022-08-26T20:46:18.003Z,16.80
2022-08-26T20:48:47.359Z,15.88
2022-08-26T20:51:13.601Z,15.80
2022-08-26T20:53:40.002Z,15.40
2022-08-26T20:56:08.976Z,15.95
2022-08-26T20:58:36.216Z,15.23
2022-08-26T21:01:07.299Z,15.65
2022-08-26T21:03:34.149Z,15.95
2022-08-26T21:06:00.357Z,15.70
2022-08-26T21:08:26.545Z,15.10
2022-08-26T21:10:52.715Z,14.95
2022-08-26T21:13:18.931Z,14.10
2022-08-26T21:15:45.477Z,15.27
2022-08-26T21:18:12.087Z,15.13
2022-08-26T21:20:38.325Z,14.23
2022-08-26T21:23:05.865Z,14.10
2022-08-26T21:25:32.013Z,14.23
2022-08-26T21:27:58.163Z,13.75
2022-08-26T21:30:24.315Z,14.73
2022-08-26T21:32:50.483Z,14.43
2022-08-26T21:35:16.628Z,14.43
2022-08-26T21:37:42.802Z,14.35
2022-08-26T21:40:10.155Z,13.93
2022-08-26T21:42:36.589Z,14.07
2022-08-26T21:45:03.921Z,13.55
2022-08-26T21:47:32.150Z,13.50
2022-08-26T21:49:59.023Z,13.10
2022-08-26T21:52:25.246Z,14.75
2022-08-26T21:54:51.380Z,13.93
2022-08-26T21:57:18.593Z,14.50
2022-08-26T21:59:44.757Z,13.80
2022-08-26T22:02:10.982Z,16.85
2022-08-26T22:04:37.431Z,13.57
2022-08-26T22:07:03.659Z,14.70
2022-08-26T22:09:33.140Z,14.85
2022-08-26T22:12:00.514Z,14.30
2022-08-26T22:14:30.607Z,14.43
2022-08-26T22:16:58.289Z,19.08
2022-08-26T22:19:25.297Z,26.10
2022-08-26T22:21:53.401Z,30.70
2022-08-26T22:24:21.696Z,21.20
2022-08-26T22:26:48.860Z,24.35
2022-08-26T22:29:16.256Z,20.58
2022-08-26T22:31:42.528Z,15.70
2022-08-26T22:34:11.541Z,14.73
2022-08-26T22:36:43.973Z,15.85
2022-08-26T22:39:11.250Z,15.65
2022-08-26T22:41:37.437Z,15.48
2022-08-26T22:44:04.243Z,15.48
2022-08-26T22:46:30.467Z,15.93
2022-08-26T22:48:56.649Z,15.80
2022-08-26T22:51:23.195Z,15.15
2022-08-26T22:53:49.664Z,16.08
2022-08-26T22:56:18.362Z,16.00
2022-08-26T22:58:44.496Z,16.02
2022-08-26T23:01:10.700Z,15.50
2022-08-26T23:03:36.954Z,15.40
2022-08-26T23:06:06.393Z,14.85
2022-08-26T23:08:32.537Z,14.80
2022-08-26T23:10:58.684Z,15.23
2022-08-26T23:13:24.824Z,15.55
2022-08-26T23:16:02.380Z,15.77
2022-08-26T23:18:28.822Z,17.63
2022-08-26T23:20:55.916Z,16.60
2022-08-26T23:23:22.826Z,17.25
2022-08-26T23:25:49.918Z,17.70
2022-08-26T23:28:16.817Z,17.40
2022-08-26T23:30:43.595Z,17.90
2022-08-26T23:33:09.739Z,18.33
2022-08-26T23:35:35.898Z,18.63
2022-08-26T23:38:04.995Z,19.15
2022-08-26T23:40:33.572Z,18.58
2022-08-26T23:43:03.411Z,17.95
2022-08-26T23:45:30.490Z,20.13
2022-08-26T23:47:56.767Z,19.73
2022-08-26T23:50:48.637Z,19.90
2022-08-26T23:53:20.085Z,20.08
2022-08-26T23:55:51.187Z,19.33
2022-08-26T23:58:19.041Z,20.42
